Time;durP1;ratioP1;P1;durP2;ratioP2;P2;SDS_P1;SDS_P2;PMS_P1;PMS_P2;Temp;Humidity;BMP_temperature;BMP_pressure;BME280_temperature;BME280_humidity;BME280_pressure;Samples;Min_cycle;Max_cycle;Signal;HPM_P1;HPM_P2
2023/08/31 00:02:03;;;;;;;15.00;13.50;;;;;;;14.58;100.00;97109.97;107228;1276;24652;-81
2023/08/31 00:04:31;;;;;;;17.30;13.30;;;;;;;14.54;100.00;97111.34;107206;1276;24258;-82
2023/08/31 00:07:00;;;;;;;14.20;12.50;;;;;;;14.53;100.00;97108.36;107230;1266;23879;-82
2023/08/31 00:09:29;;;;;;;14.60;13.20;;;;;;;14.52;100.00;97110.80;107196;1263;23879;-82
2023/08/31 00:11:57;;;;;;;17.10;14.00;;;;;;;14.49;100.00;97113.48;107260;1262;24280;-83
2023/08/31 00:14:26;;;;;;;16.60;15.10;;;;;;;14.46;100.00;97117.21;106984;1269;25277;-82
2023/08/31 00:16:57;;;;;;;15.70;13.90;;;;;;;14.42;100.00;97113.84;107314;1266;22605;-84
2023/08/31 00:19:25;;;;;;;14.70;13.40;;;;;;;14.37;100.00;97108.87;109070;1270;22559;-82
2023/08/31 00:21:53;;;;;;;14.80;13.30;;;;;;;14.38;100.00;97106.34;110208;1276;22604;-83
2023/08/31 00:24:22;;;;;;;15.40;13.70;;;;;;;14.40;100.00;97111.30;109285;1270;22588;-82
2023/08/31 00:26:51;;;;;;;16.40;14.70;;;;;;;14.41;100.00;97112.73;110390;1276;22550;-82
2023/08/31 00:29:19;;;;;;;15.70;14.20;;;;;;;14.43;100.00;97110.05;107664;1276;199650;-84
2023/08/31 00:31:49;;;;;;;15.70;14.30;;;;;;;14.46;100.00;97114.79;107020;1276;22628;-84
2023/08/31 00:34:17;;;;;;;16.90;15.20;;;;;;;14.49;100.00;97116.11;107083;1276;24370;-83
2023/08/31 00:36:45;;;;;;;15.80;14.30;;;;;;;14.48;100.00;97114.69;107239;1275;22544;-83
2023/08/31 00:39:14;;;;;;;15.00;13.40;;;;;;;14.47;100.00;97115.66;107283;1275;26509;-83
2023/08/31 00:41:45;;;;;;;18.90;16.80;;;;;;;14.46;100.00;97110.22;107234;1275;22558;-83
2023/08/31 00:44:13;;;;;;;16.50;14.40;;;;;;;14.46;100.00;97104.58;107265;1270;22782;-83
2023/08/31 00:46:42;;;;;;;17.70;15.60;;;;;;;14.48;100.00;97102.61;107221;1276;24260;-83
2023/08/31 00:49:12;;;;;;;16.80;15.20;;;;;;;14.49;100.00;97100.08;106979;1269;22645;-83
2023/08/31 00:51:48;;;;;;;19.20;17.50;;;;;;;14.46;100.00;97100.70;107031;1276;22643;-83
2023/08/31 00:54:18;;;;;;;20.80;18.90;;;;;;;14.43;100.00;97100.52;107298;1266;22646;-83
2023/08/31 00:56:46;;;;;;;21.60;19.20;;;;;;;14.37;100.00;97099.20;107182;1270;25370;-84
2023/08/31 00:59:14;;;;;;;21.40;19.30;;;;;;;14.33;100.00;97097.23;106955;1272;22636;-84
2023/08/31 01:02:01;;;;;;;20.80;18.90;;;;;;;14.28;100.00;97096.70;107172;1264;23236;-83
2023/08/31 01:04:38;;;;;;;21.00;19.10;;;;;;;14.25;100.00;97099.33;107126;1263;24033;-84
2023/08/31 01:07:37;;;;;;;20.90;19.10;;;;;;;14.24;100.00;97101.23;107191;1271;22745;-84
2023/08/31 01:10:37;;;;;;;24.90;22.40;;;;;;;14.23;100.00;97097.70;107199;1266;22575;-83
2023/08/31 01:13:13;;;;;;;26.60;23.70;;;;;;;14.20;100.00;97096.68;107238;1276;22532;-84
2023/08/31 01:15:46;;;;;;;25.40;22.80;;;;;;;14.20;100.00;97094.50;107213;1266;24202;-84
2023/08/31 01:18:18;;;;;;;26.90;24.50;;;;;;;14.16;100.00;97092.48;106933;1264;24359;-83
2023/08/31 01:21:11;;;;;;;26.40;24.00;;;;;;;14.15;100.00;97088.73;107271;1263;22711;-84
2023/08/31 01:23:55;;;;;;;29.50;26.60;;;;;;;14.16;100.00;97089.59;107154;1275;25347;-84
2023/08/31 01:26:25;;;;;;;25.80;23.50;;;;;;;14.13;100.00;97094.77;107154;1266;22551;-84
2023/08/31 01:28:55;;;;;;;28.10;25.10;;;;;;;14.15;100.00;97100.14;107204;1263;22656;-83
2023/08/31 01:31:23;;;;;;;29.30;26.80;;;;;;;14.12;100.00;97104.65;107219;1276;22619;-83
2023/08/31 01:33:51;;;;;;;28.80;25.90;;;;;;;14.10;100.00;97111.87;107169;1276;22654;-84
2023/08/31 01:36:29;;;;;;;28.80;26.00;;;;;;;14.11;100.00;97108.02;107242;1263;22527;-83
2023/08/31 01:39:25;;;;;;;27.70;25.10;;;;;;;14.13;100.00;97108.69;107198;1276;25571;-83
2023/08/31 01:41:58;;;;;;;30.20;27.40;;;;;;;14.09;100.00;97116.96;107209;1278;26623;-83
2023/08/31 01:44:27;;;;;;;28.20;25.40;;;;;;;14.09;100.00;97119.35;107277;1262;22537;-83
2023/08/31 01:47:02;;;;;;;27.90;25.10;;;;;;;14.09;100.00;97114.23;107098;1267;24206;-84
2023/08/31 01:49:39;;;;;;;26.10;23.70;;;;;;;14.09;100.00;97112.39;107290;1270;22476;-82
2023/08/31 01:52:07;;;;;;;27.50;25.00;;;;;;;14.09;100.00;97112.95;107890;1276;22514;-83
2023/08/31 01:54:37;;;;;;;29.30;25.70;;;;;;;14.10;100.00;97110.31;107042;1276;25386;-83
2023/08/31 01:57:06;;;;;;;27.20;24.60;;;;;;;14.11;100.00;97116.60;106989;1270;22686;-83
2023/08/31 01:59:43;;;;;;;28.40;25.80;;;;;;;14.14;100.00;97121.80;107093;1276;22544;-84
2023/08/31 02:02:13;;;;;;;28.70;26.10;;;;;;;14.14;100.00;97118.47;107032;1273;22616;-84
2023/08/31 02:04:43;;;;;;;29.30;26.50;;;;;;;14.16;100.00;97127.51;107249;1263;24224;-83
2023/08/31 02:07:11;;;;;;;30.40;27.80;;;;;;;14.16;100.00;97129.23;107109;1266;23009;-83
2023/08/31 02:09:39;;;;;;;29.40;26.70;;;;;;;14.16;100.00;97133.16;106904;1262;22655;-84
2023/08/31 02:12:09;;;;;;;28.80;26.50;;;;;;;14.18;100.00;97128.82;107198;1276;22778;-84
2023/08/31 02:14:37;;;;;;;31.00;28.00;;;;;;;14.24;100.00;97138.07;106973;1264;25409;-85
2023/08/31 02:17:06;;;;;;;27.90;25.10;;;;;;;14.25;100.00;97141.80;107252;1276;25268;-84
2023/08/31 02:19:33;;;;;;;27.50;25.10;;;;;;;14.24;100.00;97145.56;106948;1276;22655;-84
2023/08/31 02:22:02;;;;;;;28.10;25.30;;;;;;;14.22;100.00;97145.44;107095;1276;22765;-84
2023/08/31 02:24:30;;;;;;;27.40;24.70;;;;;;;14.20;100.00;97146.85;107216;1266;25236;-84
2023/08/31 02:26:58;;;;;;;24.90;22.70;;;;;;;14.18;100.00;97145.31;107214;1266;22555;-83
2023/08/31 02:29:26;;;;;;;24.70;22.40;;;;;;;14.17;100.00;97144.29;107145;1269;22530;-85
2023/08/31 02:31:54;;;;;;;23.10;21.00;;;;;;;14.18;100.00;97147.41;106998;1256;22602;-85
2023/08/31 02:34:22;;;;;;;20.30;18.60;;;;;;;14.18;100.00;97144.63;107223;1266;27534;-85
2023/08/31 02:36:50;;;;;;;20.70;17.80;;;;;;;14.22;100.00;97145.35;107223;1277;22528;-86
2023/08/31 02:39:18;;;;;;;21.40;18.40;;;;;;;14.22;100.00;97147.15;106934;1277;23022;-85
2023/08/31 02:41:47;;;;;;;23.40;21.10;;;;;;;14.23;100.00;97149.40;107001;1269;24237;-84
2023/08/31 02:44:17;;;;;;;23.50;21.30;;;;;;;14.20;100.00;97151.48;107222;1265;22949;-84
2023/08/31 02:46:47;;;;;;;24.70;22.40;;;;;;;14.15;100.00;97153.66;107140;1263;22600;-85
2023/08/31 02:49:15;;;;;;;25.60;23.00;;;;;;;14.11;100.00;97155.94;107229;1273;22630;-85
2023/08/31 02:51:43;;;;;;;23.80;21.80;;;;;;;14.05;100.00;97157.94;107202;1275;22652;-84
2023/08/31 02:54:11;;;;;;;22.50;20.30;;;;;;;13.99;100.00;97158.11;107170;1277;23884;-83
2023/08/31 02:56:39;;;;;;;20.80;18.70;;;;;;;13.94;100.00;97160.36;107006;1271;25647;-83
2023/08/31 02:59:07;;;;;;;19.80;18.10;;;;;;;13.94;100.00;97164.16;107110;1269;22640;-83
2023/08/31 03:01:36;;;;;;;18.20;16.50;;;;;;;13.94;100.00;97161.05;107118;1272;22531;-83
2023/08/31 03:04:05;;;;;;;18.70;16.90;;;;;;;13.93;100.00;97160.93;107075;1276;25925;-84
2023/08/31 03:06:33;;;;;;;17.00;15.20;;;;;;;13.94;100.00;97155.66;106866;1276;22541;-83
2023/08/31 03:09:02;;;;;;;18.50;16.00;;;;;;;13.94;100.00;97150.98;107178;1277;25552;-83
2023/08/31 03:11:30;;;;;;;17.40;15.60;;;;;;;13.94;100.00;97153.33;106938;1277;22770;-83
2023/08/31 03:13:58;;;;;;;18.20;16.60;;;;;;;13.96;100.00;97155.69;107227;1260;22541;-83
2023/08/31 03:16:26;;;;;;;20.40;18.50;;;;;;;13.95;100.00;97164.25;106996;1276;23916;-83
2023/08/31 03:18:54;;;;;;;15.50;14.20;;;;;;;13.96;100.00;97165.54;107601;1276;22738;-83
2023/08/31 03:21:22;;;;;;;16.40;14.60;;;;;;;14.00;100.00;97163.33;107225;1277;24340;-84
2023/08/31 03:23:51;;;;;;;16.10;14.70;;;;;;;14.05;100.00;97162.48;107236;1276;23562;-85
2023/08/31 03:26:19;;;;;;;16.30;14.90;;;;;;;14.11;100.00;97162.12;107113;1276;22761;-84
2023/08/31 03:28:47;;;;;;;15.80;14.30;;;;;;;14.14;100.00;97165.23;107021;1278;25497;-85
2023/08/31 03:31:15;;;;;;;17.20;15.60;;;;;;;14.18;100.00;97167.29;107242;1278;22752;-84
2023/08/31 03:33:43;;;;;;;14.70;13.50;;;;;;;14.17;100.00;97165.55;107271;1267;22638;-83
2023/08/31 03:36:11;;;;;;;16.50;15.00;;;;;;;14.19;100.00;97163.45;107191;1268;22812;-83
2023/08/31 03:38:40;;;;;;;15.60;14.10;;;;;;;14.18;100.00;97164.14;107147;1267;22622;-84
2023/08/31 03:41:08;;;;;;;17.40;15.90;;;;;;;14.20;100.00;97165.89;107089;1267;22583;-83
2023/08/31 03:43:36;;;;;;;16.70;15.20;;;;;;;14.17;100.00;97166.88;107117;1277;22535;-84
2023/08/31 03:46:05;;;;;;;17.90;16.20;;;;;;;14.17;100.00;97174.06;106923;1278;22619;-83
2023/08/31 03:48:33;;;;;;;18.90;17.00;;;;;;;14.12;100.00;97173.37;106958;1276;22587;-84
2023/08/31 03:51:01;;;;;;;19.90;17.80;;;;;;;14.10;100.00;97178.52;107216;1275;22518;-83
2023/08/31 03:53:29;;;;;;;17.50;15.90;;;;;;;14.09;100.00;97183.75;107128;1275;25280;-82
2023/08/31 03:55:58;;;;;;;20.50;18.50;;;;;;;14.11;100.00;97188.89;107092;1278;23349;-82
2023/08/31 03:58:26;;;;;;;21.60;19.70;;;;;;;14.13;100.00;97188.90;106997;1271;23426;-83
2023/08/31 04:00:55;;;;;;;18.40;16.60;;;;;;;14.17;100.00;97193.83;107047;1276;22543;-83
2023/08/31 04:03:23;;;;;;;21.70;19.60;;;;;;;14.22;100.00;97193.35;107171;1267;25363;-84
2023/08/31 04:05:56;;;;;;;23.10;20.80;;;;;;;14.22;100.00;97198.31;107410;1276;24247;-84
2023/08/31 04:08:24;;;;;;;23.80;21.50;;;;;;;14.19;100.00;97200.85;107206;1270;23894;-84
2023/08/31 04:10:52;;;;;;;30.00;27.50;;;;;;;14.17;100.00;97195.89;108451;1277;22589;-82
2023/08/31 04:13:21;;;;;;;27.60;25.30;;;;;;;14.15;100.00;97195.15;110221;1278;22627;-83
2023/08/31 04:15:49;;;;;;;23.30;20.90;;;;;;;14.15;100.00;97196.95;109514;1276;22919;-84
2023/08/31 04:18:17;;;;;;;23.40;21.40;;;;;;;14.15;100.00;97198.00;110108;1276;22622;-84
2023/08/31 04:20:51;;;;;;;27.50;25.00;;;;;;;14.16;100.00;97198.30;107690;1264;24294;-85
2023/08/31 04:23:20;;;;;;;26.70;24.40;;;;;;;14.16;100.00;97197.11;109269;1276;22597;-83
2023/08/31 04:25:48;;;;;;;27.90;25.10;;;;;;;14.16;100.00;97200.59;107863;1277;25610;-84
2023/08/31 04:28:16;;;;;;;23.50;21.40;;;;;;;14.16;100.00;97199.29;107119;1276;22639;-83
2023/08/31 04:30:44;;;;;;;21.20;19.30;;;;;;;14.15;100.00;97199.48;107165;1273;24357;-82
2023/08/31 04:33:13;;;;;;;19.60;17.80;;;;;;;14.18;100.00;97201.11;107076;1264;22523;-84
2023/08/31 04:35:41;;;;;;;19.20;17.20;;;;;;;14.19;100.00;97203.55;107166;1275;25675;-83
2023/08/31 04:38:09;;;;;;;29.20;21.10;;;;;;;14.20;100.00;97205.98;107140;1276;22638;-83
2023/08/31 04:40:38;;;;;;;26.40;23.80;;;;;;;14.22;100.00;97205.29;106982;1276;22531;-84
2023/08/31 04:43:06;;;;;;;20.40;18.40;;;;;;;14.27;100.00;97204.97;107153;1276;25513;-84
2023/08/31 04:45:33;;;;;;;23.80;21.60;;;;;;;14.31;100.00;97201.21;107094;1264;22574;-83
2023/08/31 04:48:03;;;;;;;21.50;18.80;;;;;;;14.33;100.00;97202.54;107705;1276;22500;-83
2023/08/31 04:50:32;;;;;;;29.00;23.50;;;;;;;14.39;100.00;97203.39;107215;1276;22520;-83
2023/08/31 04:53:00;;;;;;;82.40;44.20;;;;;;;14.42;100.00;97205.20;107135;1276;24684;-81
2023/08/31 04:55:28;;;;;;;39.10;27.50;;;;;;;14.40;100.00;97212.88;107094;1277;25360;-83
2023/08/31 04:57:57;;;;;;;22.10;18.20;;;;;;;14.33;100.00;97214.77;107093;1267;22587;-85
2023/08/31 05:00:26;;;;;;;47.20;27.60;;;;;;;14.30;100.00;97215.20;107181;1267;25481;-83
2023/08/31 05:02:54;;;;;;;26.40;20.20;;;;;;;14.29;100.00;97217.27;106995;1276;22576;-82
2023/08/31 05:05:22;;;;;;;14.60;13.10;;;;;;;14.28;100.00;97225.06;107012;1270;22572;-84
2023/08/31 05:07:50;;;;;;;16.90;13.80;;;;;;;14.25;100.00;97226.73;107029;1254;25574;-85
2023/08/31 05:10:18;;;;;;;14.70;13.30;;;;;;;14.24;100.00;97231.90;107472;1274;22739;-81
2023/08/31 05:12:46;;;;;;;13.30;11.80;;;;;;;14.22;100.00;97229.90;107183;1273;22580;-81
2023/08/31 05:15:14;;;;;;;15.50;12.60;;;;;;;14.23;100.00;97232.25;107108;1278;22527;-83
2023/08/31 05:17:42;;;;;;;12.90;11.00;;;;;;;14.28;100.00;97237.30;107044;1277;24355;-83
2023/08/31 05:20:10;;;;;;;12.40;11.10;;;;;;;14.30;100.00;97241.54;107030;1276;24343;-83
2023/08/31 05:22:38;;;;;;;12.80;11.50;;;;;;;14.31;100.00;97237.40;107029;1261;22619;-82
2023/08/31 05:25:07;;;;;;;14.10;12.50;;;;;;;14.36;100.00;97242.33;107592;1263;25484;-82
2023/08/31 05:27:35;;;;;;;15.40;13.90;;;;;;;14.40;100.00;97242.55;107458;1270;25642;-84
2023/08/31 05:30:03;;;;;;;15.90;14.40;;;;;;;14.45;100.00;97244.42;107344;1270;22652;-83
2023/08/31 05:32:31;;;;;;;13.60;12.00;;;;;;;14.50;100.00;97244.42;107488;1276;22546;-80
2023/08/31 05:34:59;;;;;;;12.80;11.60;;;;;;;14.56;100.00;97246.09;107131;1270;24534;-80
2023/08/31 05:37:32;;;;;;;15.00;10.70;;;;;;;14.62;100.00;97249.05;107384;1264;25290;-81
2023/08/31 05:40:05;;;;;;;14.80;11.40;;;;;;;14.66;100.00;97245.92;107305;1270;23919;-82
2023/08/31 05:42:34;;;;;;;13.90;12.50;;;;;;;14.70;100.00;97248.16;107324;1276;24189;-81
2023/08/31 05:45:02;;;;;;;16.50;14.00;;;;;;;14.73;100.00;97251.66;107322;1263;22524;-82
2023/08/31 05:47:31;;;;;;;16.20;14.70;;;;;;;14.80;100.00;97254.24;107111;1276;22644;-84
2023/08/31 05:49:59;;;;;;;15.40;14.00;;;;;;;14.88;100.00;97257.91;107380;1276;22524;-84
2023/08/31 05:52:27;;;;;;;16.30;13.70;;;;;;;14.97;100.00;97256.63;107075;1276;22531;-85
2023/08/31 05:54:55;;;;;;;16.20;14.70;;;;;;;15.07;100.00;97259.00;107002;1273;22538;-81
2023/08/31 05:57:23;;;;;;;15.20;13.60;;;;;;;15.12;100.00;97260.61;107150;1269;23283;-81
2023/08/31 05:59:51;;;;;;;14.00;12.20;;;;;;;15.19;100.00;97263.08;107122;1276;25277;-83
2023/08/31 06:02:19;;;;;;;15.50;14.10;;;;;;;15.26;100.00;97265.52;107187;1277;24382;-81
2023/08/31 06:04:47;;;;;;;14.90;13.60;;;;;;;15.27;100.00;97266.70;107228;1276;22650;-78
2023/08/31 06:07:15;;;;;;;15.70;14.00;;;;;;;15.20;100.00;97266.98;107338;1263;23255;-79
2023/08/31 06:09:43;;;;;;;13.50;12.20;;;;;;;15.22;100.00;97266.10;107185;1276;23277;-79
2023/08/31 06:12:11;;;;;;;12.70;11.40;;;;;;;15.25;100.00;97268.88;107345;1264;22527;-81
2023/08/31 06:14:39;;;;;;;11.10;9.90;;;;;;;15.21;100.00;97265.85;107506;1263;22753;-79
2023/08/31 06:17:08;;;;;;;17.40;13.30;;;;;;;15.21;100.00;97269.89;107210;1264;26554;-80
2023/08/31 06:19:38;;;;;;;15.10;12.40;;;;;;;15.21;100.00;97270.02;107252;1263;22535;-80
2023/08/31 06:22:06;;;;;;;10.60;9.10;;;;;;;15.22;100.00;97270.98;106935;1276;23013;-85
2023/08/31 06:24:34;;;;;;;15.80;10.10;;;;;;;15.25;100.00;97270.98;107090;1276;22631;-83
2023/08/31 06:27:02;;;;;;;12.70;11.20;;;;;;;15.29;100.00;97271.66;107150;1273;24234;-85
2023/08/31 06:29:30;;;;;;;12.10;10.50;;;;;;;15.37;100.00;97273.13;106957;1273;24209;-85
2023/08/31 06:31:58;;;;;;;13.50;11.60;;;;;;;15.43;100.00;97273.52;107120;1277;24818;-85
2023/08/31 06:34:26;;;;;;;40.40;21.10;;;;;;;15.50;100.00;97276.88;107071;1276;22771;-88
2023/08/31 06:36:54;;;;;;;15.40;10.50;;;;;;;15.54;100.00;97273.11;106923;1278;25787;-86
2023/08/31 06:39:22;;;;;;;56.40;24.10;;;;;;;15.63;100.00;97279.11;107072;1270;22535;-84
2023/08/31 06:41:50;;;;;;;12.80;10.20;;;;;;;15.72;100.00;97280.77;107007;1277;22542;-84
2023/08/31 06:44:18;;;;;;;10.60;8.20;;;;;;;15.75;100.00;97281.84;107033;1262;22562;-84
2023/08/31 06:46:46;;;;;;;13.30;8.10;;;;;;;15.75;100.00;97284.97;107120;1267;22664;-88
2023/08/31 06:49:14;;;;;;;11.00;7.80;;;;;;;15.80;100.00;97281.77;107102;1269;22640;-86
2023/08/31 06:51:43;;;;;;;7.10;6.10;;;;;;;15.86;100.00;97283.30;107097;1269;22579;-90
2023/08/31 06:54:11;;;;;;;8.80;6.50;;;;;;;15.88;100.00;97285.24;107066;1278;25475;-85
2023/08/31 06:56:39;;;;;;;8.10;6.50;;;;;;;15.93;100.00;97281.63;107145;1277;22554;-89
2023/08/31 06:59:07;;;;;;;9.20;5.40;;;;;;;15.98;100.00;97285.95;107128;1273;24248;-87
2023/08/31 07:01:35;;;;;;;5.90;4.60;;;;;;;15.99;100.00;97287.21;107158;1263;22524;-86
2023/08/31 07:04:04;;;;;;;11.80;5.20;;;;;;;15.99;100.00;97293.27;107306;1270;25328;-89
2023/08/31 07:06:35;;;;;;;7.70;5.30;;;;;;;16.02;100.00;97295.53;107188;1263;22654;-86
2023/08/31 07:09:06;;;;;;;13.30;7.10;;;;;;;16.02;100.00;97299.39;107075;1270;24286;-89
2023/08/31 07:11:34;;;;;;;7.60;4.70;;;;;;;16.04;100.00;97304.89;107133;1276;25456;-87
2023/08/31 07:14:02;;;;;;;8.80;5.00;;;;;;;16.06;100.00;97307.36;106976;1277;22607;-82
2023/08/31 07:16:30;;;;;;;6.80;4.60;;;;;;;16.05;100.00;97306.09;107110;1276;25319;-80
2023/08/31 07:18:58;;;;;;;7.10;4.80;;;;;;;16.09;100.00;97311.25;107075;1278;22559;-80
2023/08/31 07:21:26;;;;;;;7.90;4.50;;;;;;;16.16;100.00;97307.30;106937;1278;23450;-80
2023/08/31 07:23:54;;;;;;;5.40;4.50;;;;;;;16.20;100.00;97306.78;106979;1265;22627;-82
2023/08/31 07:26:22;;;;;;;6.50;4.20;;;;;;;16.21;100.00;97310.00;107095;1277;22562;-82
2023/08/31 07:28:50;;;;;;;5.60;4.50;;;;;;;16.26;100.00;97304.21;107085;1272;22586;-81
2023/08/31 07:31:19;;;;;;;6.20;4.30;;;;;;;16.32;100.00;97301.95;107103;1278;23220;-82
2023/08/31 07:33:48;;;;;;;7.80;4.40;;;;;;;16.32;100.00;97307.09;107061;1278;24374;-82
2023/08/31 07:36:16;;;;;;;5.60;4.80;;;;;;;16.30;100.00;97308.59;107023;1277;24045;-83
2023/08/31 07:38:44;;;;;;;7.60;5.10;;;;;;;16.30;100.00;97311.23;106976;1278;24478;-80
2023/08/31 07:41:12;;;;;;;8.10;4.90;;;;;;;16.32;100.00;97316.27;107118;1277;22566;-81
2023/08/31 07:43:40;;;;;;;11.10;5.10;;;;;;;16.38;100.00;97318.02;107149;1278;23370;-84
2023/08/31 07:46:27;;;;;;;7.40;5.50;;;;;;;16.45;100.00;97321.00;107271;1275;22640;-84
2023/08/31 07:48:55;;;;;;;7.60;4.60;;;;;;;16.50;100.00;97331.13;107181;1276;25351;-83
2023/08/31 07:51:25;;;;;;;6.40;4.30;;;;;;;16.48;100.00;97339.49;107097;1272;25555;-83
2023/08/31 07:53:53;;;;;;;7.50;4.50;;;;;;;16.45;100.00;97340.73;107084;1276;23779;-83
2023/08/31 07:56:23;;;;;;;6.00;4.10;;;;;;;16.48;100.00;97344.07;107266;1267;25488;-83
2023/08/31 07:58:52;;;;;;;7.10;3.70;;;;;;;16.53;100.00;97346.12;107119;1265;22754;-82
2023/08/31 08:01:20;;;;;;;7.30;4.50;;;;;;;16.57;100.00;97341.71;107765;1277;22556;-83
2023/08/31 08:03:48;;;;;;;5.70;4.20;;;;;;;16.66;100.00;97343.55;109708;1278;23993;-83
2023/08/31 08:06:16;;;;;;;8.70;4.60;;;;;;;16.72;100.00;97345.59;109153;1266;22585;-85
2023/08/31 08:08:44;;;;;;;7.50;4.60;;;;;;;16.73;100.00;97342.57;109672;1265;22549;-85
2023/08/31 08:11:12;;;;;;;7.10;4.00;;;;;;;16.74;100.00;97347.13;108512;1274;24300;-91
2023/08/31 08:13:40;;;;;;;6.60;4.10;;;;;;;16.83;100.00;97350.84;107503;1254;24270;-90
2023/08/31 08:16:11;;;;;;;5.00;4.30;;;;;;;16.90;100.00;97354.89;107061;1277;22648;-90
2023/08/31 08:18:39;;;;;;;5.20;4.40;;;;;;;16.94;100.00;97356.39;107589;1275;22607;-92
2023/08/31 08:21:07;;;;;;;6.00;3.30;;;;;;;17.02;100.00;97359.21;107343;1277;24290;-89
2023/08/31 08:23:35;;;;;;;6.10;3.40;;;;;;;17.05;100.00;97359.59;107026;1276;23004;-87
2023/08/31 08:26:03;;;;;;;5.30;3.80;;;;;;;17.09;100.00;97369.56;107149;1278;22480;-85
2023/08/31 08:28:32;;;;;;;5.60;4.00;;;;;;;17.08;99.74;97370.95;107122;1265;22527;-88
2023/08/31 08:31:04;;;;;;;6.80;3.90;;;;;;;17.10;99.66;97376.04;107164;1277;25338;-88
2023/08/31 08:33:32;;;;;;;7.40;3.50;;;;;;;17.16;99.79;97377.65;107044;1267;22542;-88
2023/08/31 08:36:00;;;;;;;5.60;4.10;;;;;;;17.19;98.75;97377.27;107105;1274;25545;-86
2023/08/31 08:38:29;;;;;;;5.00;3.60;;;;;;;17.28;99.67;97376.05;106908;1274;25310;-86
2023/08/31 08:40:57;;;;;;;6.40;3.40;;;;;;;17.42;99.91;97375.73;107213;1263;22569;-85
2023/08/31 08:43:26;;;;;;;4.80;3.40;;;;;;;17.61;100.00;97377.07;107162;1263;22530;-85
2023/08/31 08:46:00;;;;;;;5.10;3.20;;;;;;;17.73;99.93;97373.44;107228;1262;23121;-84
2023/08/31 08:48:28;;;;;;;5.50;3.40;;;;;;;17.90;100.00;97378.64;107141;1277;22630;-85
2023/08/31 08:50:57;;;;;;;3.80;2.70;;;;;;;18.04;99.95;97374.69;107149;1274;22558;-86
2023/08/31 08:53:25;;;;;;;3.50;2.70;;;;;;;18.06;96.19;97381.29;107158;1278;25284;-85
2023/08/31 08:55:53;;;;;;;5.20;2.80;;;;;;;17.96;94.27;97383.04;106936;1277;23346;-87
2023/08/31 08:58:21;;;;;;;5.90;2.70;;;;;;;17.90;95.63;97382.06;107179;1263;22605;-85
2023/08/31 09:00:51;;;;;;;5.30;2.60;;;;;;;17.93;93.08;97383.44;107099;1277;22535;-86
2023/08/31 09:03:19;;;;;;;5.10;2.50;;;;;;;17.92;93.25;97385.14;107054;1278;22537;-84
2023/08/31 09:05:48;;;;;;;4.40;2.60;;;;;;;17.94;92.79;97388.12;106811;1269;22538;-85
2023/08/31 09:08:16;;;;;;;4.00;2.50;;;;;;;17.99;92.46;97386.69;107069;1272;24375;-85
2023/08/31 09:10:44;;;;;;;3.10;2.70;;;;;;;18.01;93.31;97390.67;107132;1277;22566;-86
2023/08/31 09:13:15;;;;;;;4.50;2.60;;;;;;;18.07;92.14;97390.33;107789;1270;22612;-85
2023/08/31 09:15:45;;;;;;;3.60;2.70;;;;;;;18.08;91.65;97390.27;107397;1277;22573;-84
2023/08/31 09:18:14;;;;;;;3.00;2.50;;;;;;;18.15;93.07;97390.40;107140;1271;23814;-83
2023/08/31 09:20:45;;;;;;;4.10;2.50;;;;;;;18.24;92.90;97387.06;107187;1262;22576;-85
2023/08/31 09:23:17;;;;;;;5.30;2.90;;;;;;;18.38;93.85;97390.83;107197;1263;23251;-85
2023/08/31 09:25:50;;;;;;;5.30;2.70;;;;;;;18.50;93.67;97397.91;107101;1254;22751;-86
2023/08/31 09:28:27;;;;;;;5.40;3.10;;;;;;;18.55;92.89;97395.80;107206;1273;25419;-87
2023/08/31 09:31:07;;;;;;;5.60;2.60;;;;;;;18.59;92.16;97396.50;107180;1276;22640;-90
2023/08/31 09:33:36;;;;;;;5.10;3.20;;;;;;;18.55;90.08;97395.34;107154;1266;22525;-83
2023/08/31 09:36:29;;;;;;;4.50;3.40;;;;;;;18.49;89.58;97396.71;107181;1263;22647;-84
2023/08/31 09:38:59;;;;;;;7.10;3.70;;;;;;;18.49;89.63;97393.20;107182;1276;22524;-84
2023/08/31 09:41:27;;;;;;;8.00;3.20;;;;;;;18.62;89.38;97399.13;107225;1263;24388;-85
2023/08/31 09:43:55;;;;;;;5.90;3.30;;;;;;;18.78;89.86;97398.48;107191;1269;22614;-81
2023/08/31 09:46:23;;;;;;;6.30;3.30;;;;;;;19.01;86.82;97404.40;107684;1274;22557;-92
2023/08/31 09:48:53;;;;;;;5.80;2.90;;;;;;;18.97;85.73;97400.60;107832;1276;22536;-93
2023/08/31 09:51:25;;;;;;;4.40;2.80;;;;;;;19.10;86.24;97402.04;107615;1276;22591;-92
2023/08/31 09:53:57;;;;;;;5.20;2.40;;;;;;;19.18;85.81;97402.16;107717;1271;25508;-91
2023/08/31 09:56:30;;;;;;;4.30;2.70;;;;;;;19.20;82.37;97408.59;107453;1276;25589;-93
2023/08/31 09:58:58;;;;;;;4.40;3.00;;;;;;;19.29;82.27;97407.33;107542;1275;22576;-92
2023/08/31 10:01:26;;;;;;;3.80;2.70;;;;;;;19.30;81.82;97408.20;107266;1276;22888;-90
2023/08/31 10:03:59;;;;;;;6.80;3.20;;;;;;;19.45;82.28;97408.58;107532;1276;22523;-89
2023/08/31 10:06:27;;;;;;;5.00;2.80;;;;;;;19.62;81.51;97408.18;107336;1276;22540;-85
2023/08/31 10:08:56;;;;;;;4.60;2.50;;;;;;;19.73;81.80;97406.40;108022;1269;22632;-90
2023/08/31 10:11:50;;;;;;;3.20;2.30;;;;;;;19.88;82.98;97407.52;107745;1276;22657;-87
2023/08/31 10:14:20;;;;;;;6.50;2.70;;;;;;;20.04;82.20;97408.17;108881;1275;22290;-91
2023/08/31 10:16:52;;;;;;;3.50;2.30;;;;;;;20.10;80.12;97408.09;108927;1276;22657;-93
2023/08/31 10:19:22;;;;;;;4.40;2.60;;;;;;;20.19;78.63;97409.85;108649;1276;23133;-91
2023/08/31 10:21:50;;;;;;;4.90;2.60;;;;;;;20.27;77.59;97412.98;108074;1276;22542;-87
2023/08/31 10:25:00;;;;;;;4.60;2.90;;;;;;;20.45;77.35;97411.76;107433;1276;22834;-85
2023/08/31 10:27:28;;;;;;;4.00;2.60;;;;;;;20.42;74.22;97410.48;107236;1276;22572;-84
2023/08/31 10:29:56;;;;;;;7.70;3.00;;;;;;;20.40;75.38;97404.52;107193;1276;22564;-88
2023/08/31 10:32:24;;;;;;;3.20;2.60;;;;;;;20.56;76.68;97407.05;107332;1254;23086;-91
2023/08/31 10:35:06;;;;;;;21.30;3.90;;;;;;;20.75;77.45;97407.07;107252;1269;23912;-89
2023/08/31 10:38:13;;;;;;;7.30;2.80;;;;;;;20.93;76.51;97407.92;107105;1276;22530;-89
2023/08/31 10:41:12;;;;;;;3.90;2.40;;;;;;;20.99;76.96;97411.96;107739;1272;22570;-89
2023/08/31 10:43:44;;;;;;;4.70;2.90;;;;;;;21.00;76.14;97412.91;108422;1257;22547;-91
2023/08/31 10:46:26;;;;;;;4.00;2.60;;;;;;;20.99;72.25;97408.69;107782;1272;24853;-88
2023/08/31 10:49:00;;;;;;;4.80;2.80;;;;;;;20.92;71.18;97407.13;107634;1277;23966;-89
2023/08/31 10:51:32;;;;;;;;;;;;;;;20.86;72.17;97406.14;107056;1276;22592;-86
2023/08/31 10:54:13;;;;;;;7.30;2.60;;;;;;;20.91;74.35;97404.23;107290;1276;22608;-89
2023/08/31 10:57:11;;;;;;;5.30;3.10;;;;;;;21.17;72.80;97401.98;107223;1269;22530;-90
2023/08/31 10:59:53;;;;;;;5.00;2.60;;;;;;;21.44;73.26;97403.77;107274;1276;25597;-87
2023/08/31 11:02:38;;;;;;;30.50;6.20;;;;;;;21.68;72.28;97406.34;107221;1276;22786;-90
2023/08/31 11:05:16;;;;;;;6.10;3.10;;;;;;;21.81;70.96;97409.45;107114;1275;24373;-90
2023/08/31 11:07:49;;;;;;;9.20;4.30;;;;;;;21.73;71.06;97404.95;107306;1276;22588;-87
2023/08/31 11:10:17;;;;;;;15.70;4.20;;;;;;;21.82;67.21;97411.65;107422;1272;25890;-85
2023/08/31 11:12:50;;;;;;;6.20;2.70;;;;;;;21.75;64.17;97407.16;109207;1273;24398;-87
2023/08/31 11:15:21;;;;;;;99.20;12.40;;;;;;;21.78;66.14;97405.77;107683;1278;22681;-91
2023/08/31 11:17:51;;;;;;;6.00;3.00;;;;;;;22.07;67.18;97405.48;107877;1276;25278;-89
2023/08/31 11:20:23;;;;;;;7.60;3.00;;;;;;;22.24;63.93;97411.70;107443;1276;22488;-89
2023/08/31 11:22:54;;;;;;;54.80;9.80;;;;;;;22.26;59.71;97411.08;107128;1276;22650;-85
2023/08/31 11:25:23;;;;;;;5.40;2.70;;;;;;;22.18;61.26;97412.45;107141;1265;25575;-87